sensor_id;sensor_type;location;lat;lon;timestamp;pressure;altitude;pressure_sealevel;temperature;humidity
57606;BME280;43430;48.204;11.556;2023-02-18T00:00:20;96809.44;;;10.05;100.00
57606;BME280;43430;48.204;11.556;2023-02-18T00:08:53;96809.03;;;10.08;100.00
57606;BME280;43430;48.204;11.556;2023-02-18T00:11:46;96808.84;;;10.03;100.00
57606;BME280;43430;48.204;11.556;2023-02-18T00:14:12;96794.47;;;10.05;100.00
57606;BME280;43430;48.204;11.556;2023-02-18T00:16:42;96788.16;;;10.06;100.00
57606;BME280;43430;48.204;11.556;2023-02-18T00:19:37;96785.31;;;10.08;100.00
57606;BME280;43430;48.204;11.556;2023-02-18T00:22:07;96786.34;;;10.07;100.00
57606;BME280;43430;48.204;11.556;2023-02-18T00:30:32;96777.81;;;10.05;100.00
57606;BME280;43430;48.204;11.556;2023-02-18T00:33:07;96777.22;;;10.03;100.00
57606;BME280;43430;48.204;11.556;2023-02-18T00:35:53;96793.22;;;10.08;100.00
57606;BME280;43430;48.204;11.556;2023-02-18T00:38:51;96786.13;;;10.02;100.00
57606;BME280;43430;48.204;11.556;2023-02-18T00:44:03;96788.34;;;10.05;100.00
57606;BME280;43430;48.204;11.556;2023-02-18T00:46:39;96788.59;;;10.10;100.00
57606;BME280;43430;48.204;11.556;2023-02-18T00:49:35;96779.47;;;10.12;100.00
57606;BME280;43430;48.204;11.556;2023-02-18T00:52:12;96787.38;;;10.12;100.00
57606;BME280;43430;48.204;11.556;2023-02-18T00:57:43;96790.19;;;10.11;100.00
57606;BME280;43430;48.204;11.556;2023-02-18T01:06:52;96795.88;;;10.08;100.00
57606;BME280;43430;48.204;11.556;2023-02-18T01:13:13;96791.59;;;10.07;100.00
57606;BME280;43430;48.204;11.556;2023-02-18T01:15:54;96794.25;;;10.07;100.00
57606;BME280;43430;48.204;11.556;2023-02-18T01:27:52;96784.69;;;9.99;100.00
57606;BME280;43430;48.204;11.556;2023-02-18T01:43:29;96780.19;;;9.86;100.00
57606;BME280;43430;48.204;11.556;2023-02-18T01:46:35;96780.00;;;9.88;100.00
57606;BME280;43430;48.204;11.556;2023-02-18T01:52:13;96776.31;;;9.75;100.00
57606;BME280;43430;48.204;11.556;2023-02-18T01:58:03;96784.00;;;9.70;100.00
57606;BME280;43430;48.204;11.556;2023-02-18T02:00:38;96785.19;;;9.68;100.00
57606;BME280;43430;48.204;11.556;2023-02-18T02:03:06;96781.53;;;9.69;100.00
57606;BME280;43430;48.204;11.556;2023-02-18T02:05:37;96775.47;;;9.68;100.00
57606;BME280;43430;48.204;11.556;2023-02-18T02:08:08;96775.84;;;9.65;100.00
57606;BME280;43430;48.204;11.556;2023-02-18T02:10:42;96779.47;;;9.58;100.00
57606;BME280;43430;48.204;11.556;2023-02-18T02:13:27;96774.97;;;9.51;100.00
57606;BME280;43430;48.204;11.556;2023-02-18T02:33:32;96770.28;;;9.40;100.00
57606;BME280;43430;48.204;11.556;2023-02-18T02:50:32;96761.88;;;9.65;100.00
57606;BME280;43430;48.204;11.556;2023-02-18T02:53:05;96756.81;;;9.70;100.00
57606;BME280;43430;48.204;11.556;2023-02-18T02:55:41;96742.84;;;9.69;100.00
57606;BME280;43430;48.204;11.556;2023-02-18T02:58:31;96756.44;;;9.73;100.00
57606;BME280;43430;48.204;11.556;2023-02-18T03:03:34;96738.63;;;9.75;100.00
57606;BME280;43430;48.204;11.556;2023-02-18T03:14:58;96734.41;;;9.81;100.00
57606;BME280;43430;48.204;11.556;2023-02-18T03:17:39;96740.88;;;9.85;100.00
57606;BME280;43430;48.204;11.556;2023-02-18T03:23:15;96741.47;;;9.80;100.00
57606;BME280;43430;48.204;11.556;2023-02-18T03:25:45;96753.66;;;9.81;100.00
57606;BME280;43430;48.204;11.556;2023-02-18T03:28:37;96746.97;;;9.85;100.00
57606;BME280;43430;48.204;11.556;2023-02-18T03:31:11;96748.59;;;9.86;100.00
57606;BME280;43430;48.204;11.556;2023-02-18T03:37:02;96746.75;;;9.87;100.00
57606;BME280;43430;48.204;11.556;2023-02-18T03:40:04;96744.72;;;9.82;100.00
57606;BME280;43430;48.204;11.556;2023-02-18T03:42:38;96737.63;;;9.83;100.00
57606;BME280;43430;48.204;11.556;2023-02-18T03:45:18;96731.56;;;9.82;100.00
57606;BME280;43430;48.204;11.556;2023-02-18T03:47:48;96730.34;;;9.78;100.00
57606;BME280;43430;48.204;11.556;2023-02-18T03:50:14;96732.16;;;9.78;100.00
57606;BME280;43430;48.204;11.556;2023-02-18T03:55:30;96726.25;;;9.75;100.00
57606;BME280;43430;48.204;11.556;2023-02-18T03:58:05;96737.44;;;9.78;100.00
57606;BME280;43430;48.204;11.556;2023-02-18T04:07:04;96737.16;;;9.66;100.00
57606;BME280;43430;48.204;11.556;2023-02-18T04:10:05;96737.34;;;9.58;100.00
57606;BME280;43430;48.204;11.556;2023-02-18T04:12:38;96749.66;;;9.50;100.00
57606;BME280;43430;48.204;11.556;2023-02-18T04:15:07;96738.91;;;9.45;100.00
57606;BME280;43430;48.204;11.556;2023-02-18T04:17:46;96741.31;;;9.40;100.00
57606;BME280;43430;48.204;11.556;2023-02-18T04:20:23;96754.22;;;9.35;100.00
57606;BME280;43430;48.204;11.556;2023-02-18T04:22:49;96742.50;;;9.38;100.00
57606;BME280;43430;48.204;11.556;2023-02-18T04:25:48;96751.03;;;9.40;100.00
57606;BME280;43430;48.204;11.556;2023-02-18T04:31:32;96748.53;;;9.32;100.00
57606;BME280;43430;48.204;11.556;2023-02-18T04:40:54;96757.81;;;9.21;100.00
57606;BME280;43430;48.204;11.556;2023-02-18T04:43:45;96754.16;;;9.22;100.00
57606;BME280;43430;48.204;11.556;2023-02-18T04:46:39;96759.84;;;9.19;100.00
57606;BME280;43430;48.204;11.556;2023-02-18T04:49:14;96764.88;;;9.20;100.00
57606;BME280;43430;48.204;11.556;2023-02-18T04:51:57;96772.16;;;9.18;100.00
57606;BME280;43430;48.204;11.556;2023-02-18T04:54:33;96771.72;;;9.15;100.00
57606;BME280;43430;48.204;11.556;2023-02-18T04:59:46;96784.66;;;9.10;100.00
57606;BME280;43430;48.204;11.556;2023-02-18T05:05:26;96773.13;;;9.11;100.00
57606;BME280;43430;48.204;11.556;2023-02-18T05:08:04;96774.31;;;9.08;100.00
57606;BME280;43430;48.204;11.556;2023-02-18T05:10:49;96768.25;;;9.08;100.00
57606;BME280;43430;48.204;11.556;2023-02-18T05:16:15;96766.94;;;8.97;100.00
57606;BME280;43430;48.204;11.556;2023-02-18T05:18:43;96761.25;;;8.93;100.00
57606;BME280;43430;48.204;11.556;2023-02-18T05:24:21;96754.00;;;8.95;100.00
57606;BME280;43430;48.204;11.556;2023-02-18T05:26:50;96759.28;;;8.95;100.00
57606;BME280;43430;48.204;11.556;2023-02-18T05:29:18;96754.81;;;8.96;100.00
57606;BME280;43430;48.204;11.556;2023-02-18T05:31:47;96756.25;;;8.98;100.00
57606;BME280;43430;48.204;11.556;2023-02-18T05:34:30;96748.53;;;8.97;100.00
57606;BME280;43430;48.204;11.556;2023-02-18T05:40:22;96742.91;;;9.00;100.00
57606;BME280;43430;48.204;11.556;2023-02-18T05:58:20;96740.06;;;8.95;100.00
57606;BME280;43430;48.204;11.556;2023-02-18T06:00:48;96739.47;;;8.99;100.00
57606;BME280;43430;48.204;11.556;2023-02-18T06:03:32;96734.19;;;8.99;100.00
57606;BME280;43430;48.204;11.556;2023-02-18T06:12:15;96734.97;;;8.93;100.00
57606;BME280;43430;48.204;11.556;2023-02-18T06:14:57;96742.28;;;8.98;100.00
57606;BME280;43430;48.204;11.556;2023-02-18T06:17:34;96755.63;;;8.96;100.00
57606;BME280;43430;48.204;11.556;2023-02-18T06:20:18;96755.00;;;8.94;100.00
57606;BME280;43430;48.204;11.556;2023-02-18T06:34:26;96760.44;;;9.21;100.00
57606;BME280;43430;48.204;11.556;2023-02-18T06:40:27;96749.94;;;9.27;100.00
57606;BME280;43430;48.204;11.556;2023-02-18T06:55:51;96736.81;;;9.34;100.00
57606;BME280;43430;48.204;11.556;2023-02-18T06:58:17;96727.72;;;9.37;100.00
57606;BME280;43430;48.204;11.556;2023-02-18T07:03:47;96733.41;;;9.40;100.00
57606;BME280;43430;48.204;11.556;2023-02-18T07:20:03;96720.75;;;9.57;100.00
57606;BME280;43430;48.204;11.556;2023-02-18T07:22:28;96720.91;;;9.56;100.00
57606;BME280;43430;48.204;11.556;2023-02-18T07:24:53;96719.50;;;9.60;100.00
57606;BME280;43430;48.204;11.556;2023-02-18T07:27:22;96731.88;;;9.59;100.00
57606;BME280;43430;48.204;11.556;2023-02-18T07:29:47;96727.84;;;9.70;100.00
57606;BME280;43430;48.204;11.556;2023-02-18T07:32:13;96726.25;;;9.75;100.00
57606;BME280;43430;48.204;11.556;2023-02-18T07:34:38;96724.81;;;9.73;100.00
57606;BME280;43430;48.204;11.556;2023-02-18T07:37:03;96712.88;;;9.77;100.00
57606;BME280;43430;48.204;11.556;2023-02-18T07:39:33;96731.75;;;9.74;100.00
57606;BME280;43430;48.204;11.556;2023-02-18T07:41:58;96718.16;;;9.77;100.00
57606;BME280;43430;48.204;11.556;2023-02-18T07:44:24;96713.13;;;9.82;100.00
57606;BME280;43430;48.204;11.556;2023-02-18T07:46:51;96712.13;;;9.90;100.00
57606;BME280;43430;48.204;11.556;2023-02-18T07:49:17;96711.53;;;9.94;100.00
57606;BME280;43430;48.204;11.556;2023-02-18T07:51:42;96704.63;;;10.00;100.00
57606;BME280;43430;48.204;11.556;2023-02-18T07:54:07;96699.59;;;10.05;100.00
57606;BME280;43430;48.204;11.556;2023-02-18T07:56:33;96692.09;;;10.09;100.00
57606;BME280;43430;48.204;11.556;2023-02-18T07:58:58;96695.34;;;10.11;100.00
57606;BME280;43430;48.204;11.556;2023-02-18T08:01:23;96688.06;;;10.13;100.00
57606;BME280;43430;48.204;11.556;2023-02-18T08:03:48;96680.56;;;10.16;100.00
57606;BME280;43430;48.204;11.556;2023-02-18T08:06:35;96669.78;;;10.18;100.00
57606;BME280;43430;48.204;11.556;2023-02-18T08:08:59;96672.03;;;10.21;100.00
57606;BME280;43430;48.204;11.556;2023-02-18T08:11:24;96662.53;;;10.27;100.00
57606;BME280;43430;48.204;11.556;2023-02-18T08:13:49;96673.91;;;10.27;100.00
57606;BME280;43430;48.204;11.556;2023-02-18T08:16:15;96656.47;;;10.26;100.00
57606;BME280;43430;48.204;11.556;2023-02-18T08:18:41;96668.63;;;10.27;100.00
57606;BME280;43430;48.204;11.556;2023-02-18T08:21:06;96668.22;;;10.30;100.00
57606;BME280;43430;48.204;11.556;2023-02-18T08:23:32;96669.84;;;10.31;100.00
57606;BME280;43430;48.204;11.556;2023-02-18T08:25:57;96650.19;;;10.34;100.00
57606;BME280;43430;48.204;11.556;2023-02-18T08:28:22;96658.09;;;10.34;100.00
57606;BME280;43430;48.204;11.556;2023-02-18T08:30:49;96652.41;;;10.43;100.00
57606;BME280;43430;48.204;11.556;2023-02-18T08:33:15;96651.19;;;10.46;100.00
57606;BME280;43430;48.204;11.556;2023-02-18T08:35:40;96630.06;;;10.53;100.00
57606;BME280;43430;48.204;11.556;2023-02-18T08:38:06;96642.25;;;10.60;100.00
57606;BME280;43430;48.204;11.556;2023-02-18T08:40:31;96630.47;;;10.63;100.00
57606;BME280;43430;48.204;11.556;2023-02-18T08:42:56;96629.66;;;10.69;100.00
57606;BME280;43430;48.204;11.556;2023-02-18T08:45:21;96623.16;;;10.72;100.00
57606;BME280;43430;48.204;11.556;2023-02-18T08:47:46;96632.91;;;10.71;100.00
57606;BME280;43430;48.204;11.556;2023-02-18T08:50:12;96623.97;;;10.72;100.00
57606;BME280;43430;48.204;11.556;2023-02-18T08:52:37;96628.84;;;10.75;100.00
57606;BME280;43430;48.204;11.556;2023-02-18T08:55:03;96636.53;;;10.77;100.00
57606;BME280;43430;48.204;11.556;2023-02-18T08:57:28;96615.00;;;10.86;100.00
57606;BME280;43430;48.204;11.556;2023-02-18T08:59:53;96621.28;;;10.85;100.00
57606;BME280;43430;48.204;11.556;2023-02-18T09:02:18;96629.22;;;10.85;100.00
57606;BME280;43430;48.204;11.556;2023-02-18T09:04:44;96624.94;;;10.91;100.00
57606;BME280;43430;48.204;11.556;2023-02-18T09:07:09;96609.25;;;11.03;100.00
57606;BME280;43430;48.204;11.556;2023-02-18T09:09:34;96636.88;;;11.00;100.00
57606;BME280;43430;48.204;11.556;2023-02-18T09:12:02;96625.34;;;10.95;100.00
57606;BME280;43430;48.204;11.556;2023-02-18T09:14:27;96623.91;;;10.92;100.00
57606;BME280;43430;48.204;11.556;2023-02-18T09:16:53;96613.34;;;10.99;100.00
57606;BME280;43430;48.204;11.556;2023-02-18T09:19:18;96617.81;;;10.98;100.00
57606;BME280;43430;48.204;11.556;2023-02-18T09:21:43;96615.75;;;11.07;100.00
57606;BME280;43430;48.204;11.556;2023-02-18T09:24:09;96617.56;;;11.13;100.00
57606;BME280;43430;48.204;11.556;2023-02-18T09:26:34;96614.25;;;11.24;100.00
57606;BME280;43430;48.204;11.556;2023-02-18T09:28:59;96624.81;;;11.24;100.00
57606;BME280;43430;48.204;11.556;2023-02-18T09:31:25;96626.22;;;11.27;100.00
57606;BME280;43430;48.204;11.556;2023-02-18T09:33:52;96623.81;;;11.25;100.00
57606;BME280;43430;48.204;11.556;2023-02-18T09:36:18;96610.00;;;11.23;100.00
57606;BME280;43430;48.204;11.556;2023-02-18T09:38:44;96604.34;;;11.13;100.00
57606;BME280;43430;48.204;11.556;2023-02-18T09:41:13;96611.84;;;11.23;100.00
57606;BME280;43430;48.204;11.556;2023-02-18T09:43:43;96614.84;;;11.26;100.00
57606;BME280;43430;48.204;11.556;2023-02-18T09:46:15;96594.88;;;11.44;100.00
57606;BME280;43430;48.204;11.556;2023-02-18T09:48:41;96598.78;;;11.34;100.00
57606;BME280;43430;48.204;11.556;2023-02-18T09:51:09;96599.38;;;11.36;100.00
57606;BME280;43430;48.204;11.556;2023-02-18T09:53:37;96600.22;;;11.30;100.00
57606;BME280;43430;48.204;11.556;2023-02-18T09:56:02;96604.97;;;11.53;100.00
57606;BME280;43430;48.204;11.556;2023-02-18T09:58:31;96589.13;;;11.53;100.00
57606;BME280;43430;48.204;11.556;2023-02-18T10:03:28;96584.69;;;11.47;100.00
57606;BME280;43430;48.204;11.556;2023-02-18T10:05:58;96577.06;;;11.64;100.00
57606;BME280;43430;48.204;11.556;2023-02-18T10:08:26;96578.72;;;11.58;100.00
57606;BME280;43430;48.204;11.556;2023-02-18T10:10:52;96571.78;;;11.64;100.00
57606;BME280;43430;48.204;11.556;2023-02-18T10:13:21;96572.91;;;11.50;100.00
57606;BME280;43430;48.204;11.556;2023-02-18T10:15:48;96571.19;;;11.62;100.00
57606;BME280;43430;48.204;11.556;2023-02-18T10:18:37;96571.88;;;11.51;100.00
57606;BME280;43430;48.204;11.556;2023-02-18T10:23:26;96572.59;;;11.33;100.00
57606;BME280;43430;48.204;11.556;2023-02-18T10:25:53;96562.03;;;11.33;100.00
57606;BME280;43430;48.204;11.556;2023-02-18T10:28:20;96569.75;;;11.28;100.00
57606;BME280;43430;48.204;11.556;2023-02-18T10:30:53;96557.19;;;11.23;100.00
57606;BME280;43430;48.204;11.556;2023-02-18T10:33:26;96557.38;;;11.28;100.00
57606;BME280;43430;48.204;11.556;2023-02-18T10:35:53;96559.78;;;11.36;100.00
57606;BME280;43430;48.204;11.556;2023-02-18T10:43:38;96528.63;;;11.45;100.00
57606;BME280;43430;48.204;11.556;2023-02-18T10:51:16;96509.91;;;11.53;100.00
57606;BME280;43430;48.204;11.556;2023-02-18T10:53:43;96518.69;;;11.72;100.00
57606;BME280;43430;48.204;11.556;2023-02-18T10:58:57;96490.41;;;12.04;100.00
57606;BME280;43430;48.204;11.556;2023-02-18T11:01:24;96490.31;;;12.11;100.00
57606;BME280;43430;48.204;11.556;2023-02-18T11:03:50;96486.97;;;12.22;100.00
57606;BME280;43430;48.204;11.556;2023-02-18T11:08:56;96460.97;;;12.38;100.00
57606;BME280;43430;48.204;11.556;2023-02-18T11:11:28;96456.63;;;12.43;100.00
57606;BME280;43430;48.204;11.556;2023-02-18T11:13:56;96454.19;;;12.42;100.00
57606;BME280;43430;48.204;11.556;2023-02-18T11:16:23;96444.50;;;12.54;100.00
57606;BME280;43430;48.204;11.556;2023-02-18T11:18:59;96449.41;;;12.69;100.00
57606;BME280;43430;48.204;11.556;2023-02-18T11:21:35;96448.41;;;12.70;100.00
57606;BME280;43430;48.204;11.556;2023-02-18T11:24:14;96460.13;;;12.74;100.00
57606;BME280;43430;48.204;11.556;2023-02-18T11:26:40;96450.84;;;12.83;100.00
57606;BME280;43430;48.204;11.556;2023-02-18T11:29:21;96432.63;;;13.05;100.00
57606;BME280;43430;48.204;11.556;2023-02-18T11:31:52;96438.19;;;13.15;100.00
57606;BME280;43430;48.204;11.556;2023-02-18T11:34:20;96431.00;;;13.04;100.00
57606;BME280;43430;48.204;11.556;2023-02-18T11:36:46;96431.13;;;12.97;100.00
57606;BME280;43430;48.204;11.556;2023-02-18T11:41:39;96430.56;;;13.07;100.00
57606;BME280;43430;48.204;11.556;2023-02-18T11:46:55;96414.66;;;12.95;100.00
57606;BME280;43430;48.204;11.556;2023-02-18T11:49:21;96425.66;;;12.80;100.00
57606;BME280;43430;48.204;11.556;2023-02-18T11:51:47;96419.94;;;12.95;100.00
57606;BME280;43430;48.204;11.556;2023-02-18T11:56:56;96415.25;;;12.97;100.00
57606;BME280;43430;48.204;11.556;2023-02-18T11:59:22;96410.97;;;12.96;100.00
57606;BME280;43430;48.204;11.556;2023-02-18T12:01:51;96408.84;;;12.87;100.00
57606;BME280;43430;48.204;11.556;2023-02-18T12:04:19;96407.59;;;12.89;100.00
57606;BME280;43430;48.204;11.556;2023-02-18T12:06:53;96415.19;;;12.86;100.00
57606;BME280;43430;48.204;11.556;2023-02-18T12:11:52;96393.56;;;12.89;100.00
57606;BME280;43430;48.204;11.556;2023-02-18T12:14:20;96399.13;;;12.99;100.00
57606;BME280;43430;48.204;11.556;2023-02-18T12:53:14;96335.53;;;12.75;100.00
57606;BME280;43430;48.204;11.556;2023-02-18T13:01:18;96344.69;;;12.91;100.00
57606;BME280;43430;48.204;11.556;2023-02-18T13:08:48;96343.03;;;12.78;100.00
57606;BME280;43430;48.204;11.556;2023-02-18T13:13:59;96348.81;;;12.87;100.00
57606;BME280;43430;48.204;11.556;2023-02-18T13:16:27;96330.78;;;13.07;100.00
57606;BME280;43430;48.204;11.556;2023-02-18T13:21:31;96342.22;;;12.78;100.00
57606;BME280;43430;48.204;11.556;2023-02-18T13:26:21;96328.25;;;13.01;100.00
57606;BME280;43430;48.204;11.556;2023-02-18T13:36:34;96320.47;;;12.76;100.00
57606;BME280;43430;48.204;11.556;2023-02-18T13:41:26;96313.22;;;12.83;100.00
57606;BME280;43430;48.204;11.556;2023-02-18T13:43:51;96335.22;;;12.83;100.00
57606;BME280;43430;48.204;11.556;2023-02-18T13:46:18;96324.59;;;12.72;100.00
57606;BME280;43430;48.204;11.556;2023-02-18T13:48:48;96327.00;;;12.62;100.00
57606;BME280;43430;48.204;11.556;2023-02-18T13:51:27;96324.66;;;12.53;100.00
57606;BME280;43430;48.204;11.556;2023-02-18T13:53:55;96336.66;;;12.56;100.00
57606;BME280;43430;48.204;11.556;2023-02-18T13:56:27;96327.53;;;12.52;100.00
57606;BME280;43430;48.204;11.556;2023-02-18T13:59:00;96317.66;;;12.59;100.00
57606;BME280;43430;48.204;11.556;2023-02-18T14:01:37;96316.38;;;12.50;100.00
57606;BME280;43430;48.204;11.556;2023-02-18T14:04:03;96321.53;;;12.45;100.00
57606;BME280;43430;48.204;11.556;2023-02-18T14:14:42;96306.38;;;12.52;100.00
57606;BME280;43430;48.204;11.556;2023-02-18T14:19:38;96306.69;;;12.44;100.00
57606;BME280;43430;48.204;11.556;2023-02-18T14:24:48;96303.09;;;12.38;100.00
57606;BME280;43430;48.204;11.556;2023-02-18T14:27:15;96307.91;;;12.29;100.00
57606;BME280;43430;48.204;11.556;2023-02-18T14:29:40;96318.13;;;12.26;100.00
57606;BME280;43430;48.204;11.556;2023-02-18T14:32:10;96298.66;;;12.20;100.00
57606;BME280;43430;48.204;11.556;2023-02-18T14:34:40;96311.53;;;12.17;100.00
57606;BME280;43430;48.204;11.556;2023-02-18T14:37:18;96306.84;;;12.19;100.00
57606;BME280;43430;48.204;11.556;2023-02-18T14:39:55;96306.84;;;12.19;100.00
57606;BME280;43430;48.204;11.556;2023-02-18T14:42:36;96311.09;;;12.20;100.00
57606;BME280;43430;48.204;11.556;2023-02-18T14:50:15;96302.03;;;12.27;100.00
57606;BME280;43430;48.204;11.556;2023-02-18T14:52:43;96306.75;;;12.25;100.00
57606;BME280;43430;48.204;11.556;2023-02-18T14:58:10;96317.31;;;12.25;100.00
57606;BME280;43430;48.204;11.556;2023-02-18T15:00:40;96305.19;;;12.18;100.00
57606;BME280;43430;48.204;11.556;2023-02-18T15:03:13;96297.72;;;12.15;100.00
57606;BME280;43430;48.204;11.556;2023-02-18T15:05:39;96306.47;;;12.15;100.00
57606;BME280;43430;48.204;11.556;2023-02-18T15:08:05;96311.16;;;12.13;100.00
57606;BME280;43430;48.204;11.556;2023-02-18T15:13:01;96306.69;;;12.14;100.00
57606;BME280;43430;48.204;11.556;2023-02-18T15:15:27;96305.66;;;12.15;100.00
57606;BME280;43430;48.204;11.556;2023-02-18T15:17:52;96313.97;;;12.18;100.00
57606;BME280;43430;48.204;11.556;2023-02-18T15:20:17;96308.69;;;12.18;100.00
57606;BME280;43430;48.204;11.556;2023-02-18T15:22:43;96313.97;;;12.18;100.00
57606;BME280;43430;48.204;11.556;2023-02-18T15:25:11;96305.19;;;12.18;100.00
57606;BME280;43430;48.204;11.556;2023-02-18T15:27:37;96315.41;;;12.14;100.00
57606;BME280;43430;48.204;11.556;2023-02-18T15:33:08;96307.38;;;12.09;100.00
57606;BME280;43430;48.204;11.556;2023-02-18T15:35:35;96292.53;;;12.08;100.00
57606;BME280;43430;48.204;11.556;2023-02-18T15:38:04;96300.91;;;12.05;100.00
57606;BME280;43430;48.204;11.556;2023-02-18T15:40:30;96310.75;;;11.98;100.00
57606;BME280;43430;48.204;11.556;2023-02-18T15:43:00;96301.19;;;11.97;100.00
57606;BME280;43430;48.204;11.556;2023-02-18T15:45:33;96314.72;;;11.88;100.00
57606;BME280;43430;48.204;11.556;2023-02-18T15:47:59;96318.41;;;11.87;100.00
57606;BME280;43430;48.204;11.556;2023-02-18T15:50:30;96320.81;;;11.89;100.00
57606;BME280;43430;48.204;11.556;2023-02-18T15:52:57;96331.25;;;11.84;100.00
57606;BME280;43430;48.204;11.556;2023-02-18T15:55:31;96323.38;;;11.77;100.00
57606;BME280;43430;48.204;11.556;2023-02-18T15:58:00;96323.56;;;11.76;100.00
57606;BME280;43430;48.204;11.556;2023-02-18T16:00:29;96320.34;;;11.74;100.00
57606;BME280;43430;48.204;11.556;2023-02-18T16:03:01;96323.63;;;11.69;100.00
57606;BME280;43430;48.204;11.556;2023-02-18T16:05:27;96333.03;;;11.65;100.00
57606;BME280;43430;48.204;11.556;2023-02-18T16:07:57;96328.41;;;11.60;100.00
57606;BME280;43430;48.204;11.556;2023-02-18T16:13:00;96318.50;;;11.56;100.00
57606;BME280;43430;48.204;11.556;2023-02-18T16:15:37;96328.91;;;11.51;100.00
57606;BME280;43430;48.204;11.556;2023-02-18T16:18:03;96326.88;;;11.53;100.00
57606;BME280;43430;48.204;11.556;2023-02-18T16:20:30;96316.16;;;11.48;100.00
57606;BME280;43430;48.204;11.556;2023-02-18T16:22:58;96322.91;;;11.44;100.00
57606;BME280;43430;48.204;11.556;2023-02-18T16:25:25;96322.53;;;11.40;100.00
57606;BME280;43430;48.204;11.556;2023-02-18T16:28:32;96320.91;;;11.39;100.00
57606;BME280;43430;48.204;11.556;2023-02-18T16:30:40;96325.59;;;11.37;100.00
57606;BME280;43430;48.204;11.556;2023-02-18T16:33:05;96307.78;;;11.32;100.00
57606;BME280;43430;48.204;11.556;2023-02-18T16:35:31;96323.44;;;11.27;100.00
57606;BME280;43430;48.204;11.556;2023-02-18T16:37:56;96320.97;;;11.32;100.00
57606;BME280;43430;48.204;11.556;2023-02-18T16:40:24;96318.53;;;11.31;100.00
57606;BME280;43430;48.204;11.556;2023-02-18T16:42:49;96313.69;;;11.28;100.00
57606;BME280;43430;48.204;11.556;2023-02-18T16:45:15;96325.06;;;11.28;100.00
57606;BME280;43430;48.204;11.556;2023-02-18T16:47:40;96325.50;;;11.25;100.00
57606;BME280;43430;48.204;11.556;2023-02-18T16:50:13;96330.19;;;11.23;100.00
57606;BME280;43430;48.204;11.556;2023-02-18T16:52:41;96331.84;;;11.17;100.00
57606;BME280;43430;48.204;11.556;2023-02-18T16:55:20;96335.53;;;11.16;100.00
57606;BME280;43430;48.204;11.556;2023-02-18T16:57:45;96335.09;;;11.20;100.00
57606;BME280;43430;48.204;11.556;2023-02-18T17:00:11;96334.28;;;11.19;100.00
57606;BME280;43430;48.204;11.556;2023-02-18T17:02:36;96349.31;;;11.19;100.00
57606;BME280;43430;48.204;11.556;2023-02-18T17:05:01;96342.84;;;11.14;100.00
57606;BME280;43430;48.204;11.556;2023-02-18T17:07:27;96342.03;;;11.14;100.00
57606;BME280;43430;48.204;11.556;2023-02-18T17:09:52;96347.53;;;11.12;100.00
57606;BME280;43430;48.204;11.556;2023-02-18T17:12:17;96356.31;;;11.06;100.00
57606;BME280;43430;48.204;11.556;2023-02-18T17:14:42;96350.81;;;11.08;100.00
57606;BME280;43430;48.204;11.556;2023-02-18T17:17:11;96356.75;;;11.03;100.00
57606;BME280;43430;48.204;11.556;2023-02-18T17:19:38;96357.13;;;11.07;100.00
57606;BME280;43430;48.204;11.556;2023-02-18T17:22:03;96359.00;;;11.00;100.00
57606;BME280;43430;48.204;11.556;2023-02-18T17:24:28;96373.22;;;10.99;100.00
57606;BME280;43430;48.204;11.556;2023-02-18T17:26:53;96376.44;;;11.01;100.00
57606;BME280;43430;48.204;11.556;2023-02-18T17:29:19;96375.88;;;10.99;100.00
57606;BME280;43430;48.204;11.556;2023-02-18T17:31:44;96376.06;;;10.97;100.00
57606;BME280;43430;48.204;11.556;2023-02-18T17:34:13;96376.72;;;10.92;100.00
57606;BME280;43430;48.204;11.556;2023-02-18T17:36:38;96383.59;;;10.93;100.00
57606;BME280;43430;48.204;11.556;2023-02-18T17:39:11;96386.47;;;10.92;100.00
57606;BME280;43430;48.204;11.556;2023-02-18T17:41:37;96382.41;;;10.89;100.00
57606;BME280;43430;48.204;11.556;2023-02-18T17:44:04;96380.81;;;10.88;100.00
57606;BME280;43430;48.204;11.556;2023-02-18T17:46:33;96390.75;;;10.86;100.00
57606;BME280;43430;48.204;11.556;2023-02-18T17:48:58;96392.59;;;10.86;100.00
57606;BME280;43430;48.204;11.556;2023-02-18T17:51:26;96392.97;;;10.89;100.00
57606;BME280;43430;48.204;11.556;2023-02-18T17:53:52;96392.16;;;10.89;100.00
57606;BME280;43430;48.204;11.556;2023-02-18T17:56:17;96396.84;;;10.87;100.00
57606;BME280;43430;48.204;11.556;2023-02-18T17:58:43;96395.44;;;10.84;100.00
57606;BME280;43430;48.204;11.556;2023-02-18T18:01:10;96388.13;;;10.86;100.00
57606;BME280;43430;48.204;11.556;2023-02-18T18:03:35;96397.44;;;10.89;100.00
57606;BME280;43430;48.204;11.556;2023-02-18T18:06:00;96397.06;;;10.85;100.00
57606;BME280;43430;48.204;11.556;2023-02-18T18:08:28;96393.81;;;10.83;100.00
57606;BME280;43430;48.204;11.556;2023-02-18T18:10:55;96398.66;;;10.86;100.00
57606;BME280;43430;48.204;11.556;2023-02-18T18:13:25;96396.03;;;10.86;100.00
57606;BME280;43430;48.204;11.556;2023-02-18T18:15:51;96397.06;;;10.85;100.00
57606;BME280;43430;48.204;11.556;2023-02-18T18:18:16;96395.03;;;10.87;100.00
57606;BME280;43430;48.204;11.556;2023-02-18T18:20:46;96391.34;;;10.88;100.00
57606;BME280;43430;48.204;11.556;2023-02-18T18:23:12;96390.75;;;10.86;100.00
57606;BME280;43430;48.204;11.556;2023-02-18T18:25:45;96383.47;;;10.82;100.00
57606;BME280;43430;48.204;11.556;2023-02-18T18:28:11;96387.34;;;10.79;100.00
57606;BME280;43430;48.204;11.556;2023-02-18T18:30:38;96377.97;;;10.83;100.00